createdAt,value
2022-08-24T00:00:35.003Z,22.05
2022-08-24T00:03:02.654Z,22.03
2022-08-24T00:05:29.832Z,22.00
2022-08-24T00:07:56.909Z,21.94
2022-08-24T00:10:25.127Z,21.97
2022-08-24T00:12:52.305Z,21.87
2022-08-24T00:15:19.442Z,21.91
2022-08-24T00:17:46.468Z,21.90
2022-08-24T00:20:13.716Z,21.91
2022-08-24T00:22:41.174Z,21.88
2022-08-24T00:25:11.097Z,21.85
2022-08-24T00:27:39.339Z,21.78
2022-08-24T00:30:10.022Z,21.82
2022-08-24T00:32:37.846Z,21.78
2022-08-24T00:35:06.778Z,21.70
2022-08-24T00:37:34.208Z,21.73
2022-08-24T00:40:01.371Z,21.65
2022-08-24T00:42:28.233Z,21.61
2022-08-24T00:44:54.872Z,21.63
2022-08-24T00:47:25.776Z,21.65
2022-08-24T00:50:09.174Z,21.60
2022-08-24T00:52:43.877Z,21.58
2022-08-24T00:55:17.718Z,21.63
2022-08-24T00:57:49.623Z,21.61
2022-08-24T01:00:21.774Z,21.52
2022-08-24T01:02:52.924Z,21.54
2022-08-24T01:05:20.220Z,21.49
2022-08-24T01:07:49.377Z,21.49
2022-08-24T01:10:21.119Z,21.44
2022-08-24T01:13:00.786Z,21.53
2022-08-24T01:15:30.796Z,21.49
2022-08-24T01:18:16.784Z,21.46
2022-08-24T01:20:49.451Z,21.35
2022-08-24T01:23:39.851Z,21.36
2022-08-24T01:26:10.580Z,21.33
2022-08-24T01:28:40.602Z,21.29
2022-08-24T01:31:08.626Z,21.19
2022-08-24T01:33:35.818Z,21.20
2022-08-24T01:36:18.721Z,21.10
2022-08-24T01:38:48.111Z,21.11
2022-08-24T01:41:15.309Z,21.05
2022-08-24T01:43:42.050Z,21.02
2022-08-24T01:46:09.216Z,20.98
2022-08-24T01:48:36.588Z,20.95
2022-08-24T01:51:04.427Z,20.85
2022-08-24T01:53:31.519Z,20.88
2022-08-24T01:55:58.840Z,20.86
2022-08-24T01:58:25.845Z,20.82
2022-08-24T02:00:52.983Z,20.82
2022-08-24T02:03:20.571Z,20.80
2022-08-24T02:05:54.455Z,20.77
2022-08-24T02:08:21.698Z,20.71
2022-08-24T02:10:56.300Z,20.78
2022-08-24T02:13:24.356Z,20.76
2022-08-24T02:15:51.209Z,20.74
2022-08-24T02:18:17.865Z,20.65
2022-08-24T02:20:45.312Z,20.70
2022-08-24T02:23:12.397Z,20.67
2022-08-24T02:25:39.155Z,20.65
2022-08-24T02:28:06.181Z,20.63
2022-08-24T02:30:32.991Z,20.61
2022-08-24T02:33:00.396Z,20.58
2022-08-24T02:35:29.756Z,20.52
2022-08-24T02:37:57.647Z,20.54
2022-08-24T02:40:26.067Z,20.52
2022-08-24T02:42:53.308Z,20.40
2022-08-24T02:45:21.518Z,20.48
2022-08-24T02:47:48.326Z,20.35
2022-08-24T02:50:18.088Z,20.37
2022-08-24T02:52:47.593Z,20.26
2022-08-24T02:55:20.144Z,20.28
2022-08-24T02:57:48.907Z,20.25
2022-08-24T03:00:19.071Z,20.19
2022-08-24T03:02:46.624Z,20.17
2022-08-24T03:05:15.421Z,20.09
2022-08-24T03:07:43.372Z,20.14
2022-08-24T03:10:12.059Z,20.10
2022-08-24T03:12:40.136Z,20.18
2022-08-24T03:15:10.621Z,20.14
2022-08-24T03:17:39.866Z,20.15
2022-08-24T03:20:12.456Z,20.06
2022-08-24T03:22:39.829Z,20.11
2022-08-24T03:25:07.387Z,20.11
2022-08-24T03:27:34.613Z,20.03
2022-08-24T03:30:01.753Z,20.06
2022-08-24T03:32:29.162Z,20.06
2022-08-24T03:34:56.147Z,20.07
2022-08-24T03:37:22.826Z,20.06
2022-08-24T03:39:51.008Z,20.11
2022-08-24T03:42:18.430Z,20.09
2022-08-24T03:44:45.186Z,20.12
2022-08-24T03:47:13.849Z,20.16
2022-08-24T03:49:41.001Z,20.21
2022-08-24T03:52:07.890Z,20.23
2022-08-24T03:54:34.640Z,20.21
2022-08-24T03:57:01.780Z,20.20
2022-08-24T03:59:28.738Z,20.29
2022-08-24T04:01:57.452Z,20.35
2022-08-24T04:04:27.156Z,20.40
2022-08-24T04:06:55.160Z,20.43
2022-08-24T04:09:22.429Z,20.44
2022-08-24T04:11:51.980Z,20.44
2022-08-24T04:14:27.311Z,20.39
2022-08-24T04:16:57.510Z,20.48
2022-08-24T04:19:25.795Z,20.49
2022-08-24T04:21:52.722Z,20.41
2022-08-24T04:24:20.489Z,20.47
2022-08-24T04:26:47.598Z,20.48
2022-08-24T04:29:16.603Z,20.46
2022-08-24T04:31:45.410Z,20.46
2022-08-24T04:34:15.659Z,20.49
2022-08-24T04:36:44.860Z,20.44
2022-08-24T04:39:12.989Z,20.42
2022-08-24T04:41:42.691Z,20.46
2022-08-24T04:44:09.717Z,20.41
2022-08-24T04:46:37.689Z,20.51
2022-08-24T04:49:04.496Z,20.52
2022-08-24T04:51:36.719Z,20.54
2022-08-24T04:54:06.203Z,20.50
2022-08-24T04:56:32.948Z,20.52
2022-08-24T04:59:00.156Z,20.61
2022-08-24T05:01:32.749Z,20.58
2022-08-24T05:04:00.349Z,20.62
2022-08-24T05:06:30.290Z,20.70
2022-08-24T05:08:57.121Z,20.68
2022-08-24T05:11:24.600Z,20.68
2022-08-24T05:13:53.229Z,20.70
2022-08-24T05:16:21.192Z,20.69
2022-08-24T05:18:48.347Z,20.72
2022-08-24T05:21:19.929Z,20.75
2022-08-24T05:23:49.664Z,20.82
2022-08-24T05:26:24.339Z,20.85
2022-08-24T05:28:55.443Z,20.90
2022-08-24T05:31:26.272Z,20.95
2022-08-24T05:33:53.479Z,20.97
2022-08-24T05:36:29.250Z,21.00
2022-08-24T05:38:58.212Z,21.04
2022-08-24T05:41:25.323Z,21.09
2022-08-24T05:43:54.098Z,21.10
2022-08-24T05:46:21.744Z,21.15
2022-08-24T05:48:52.589Z,21.19
2022-08-24T05:51:23.096Z,21.22
2022-08-24T05:53:50.129Z,21.27
2022-08-24T05:56:18.723Z,21.32
2022-08-24T05:58:46.945Z,21.36
2022-08-24T06:01:20.932Z,21.34
2022-08-24T06:03:49.566Z,21.47
2022-08-24T06:06:17.869Z,21.56
2022-08-24T06:08:47.954Z,21.58
2022-08-24T06:11:24.833Z,21.62
2022-08-24T06:14:00.602Z,21.77
2022-08-24T06:16:29.432Z,21.84
2022-08-24T06:18:56.496Z,21.84
2022-08-24T06:21:28.382Z,21.90
2022-08-24T06:23:56.874Z,21.95
2022-08-24T06:26:42.470Z,22.08
2022-08-24T06:29:10.605Z,22.09
2022-08-24T06:31:42.496Z,22.13
2022-08-24T06:34:13.147Z,22.25
2022-08-24T06:36:40.234Z,22.32
2022-08-24T06:39:09.945Z,22.32
2022-08-24T06:41:39.193Z,22.33
2022-08-24T06:44:08.790Z,22.47
2022-08-24T06:46:42.769Z,22.43
2022-08-24T06:49:09.712Z,22.48
2022-08-24T06:51:36.473Z,22.47
2022-08-24T06:54:05.116Z,22.53
2022-08-24T06:56:32.249Z,22.64
2022-08-24T06:59:00.606Z,22.67
2022-08-24T07:01:28.429Z,22.73
2022-08-24T07:03:56.912Z,22.83
2022-08-24T07:06:27.230Z,22.90
2022-08-24T07:08:56.511Z,22.97
2022-08-24T07:11:25.037Z,23.00
2022-08-24T07:13:51.980Z,23.06
2022-08-24T07:18:49.985Z,23.12
2022-08-24T07:21:19.921Z,23.17
2022-08-24T07:23:48.926Z,23.26
2022-08-24T07:26:21.820Z,23.34
2022-08-24T07:28:54.607Z,23.42
2022-08-24T07:31:22.186Z,23.48
2022-08-24T07:33:50.484Z,23.54
2022-08-24T07:36:22.688Z,23.61
2022-08-24T07:38:54.507Z,23.60
2022-08-24T07:41:51.459Z,23.69
2022-08-24T07:44:12.596Z,23.73
2022-08-24T07:46:41.186Z,23.81
2022-08-24T07:49:21.429Z,23.85
2022-08-24T07:51:58.605Z,23.86
2022-08-24T07:54:25.784Z,23.95
2022-08-24T07:56:52.574Z,24.06
2022-08-24T07:59:19.730Z,24.12
2022-08-24T08:01:46.717Z,24.22
2022-08-24T08:04:15.362Z,24.38
2022-08-24T08:06:43.175Z,24.46
2022-08-24T08:09:10.176Z,24.50
2022-08-24T08:11:37.162Z,24.53
2022-08-24T08:14:03.921Z,24.51
2022-08-24T08:16:31.192Z,24.63
2022-08-24T08:19:09.907Z,24.69
2022-08-24T08:22:05.231Z,24.75
2022-08-24T08:24:33.798Z,24.83
2022-08-24T08:27:02.596Z,24.95
2022-08-24T08:29:32.835Z,25.02
2022-08-24T08:32:01.145Z,25.07
2022-08-24T08:34:29.153Z,25.16
2022-08-24T08:36:56.407Z,25.08
2022-08-24T08:39:25.889Z,25.32
2022-08-24T08:42:02.386Z,25.34
2022-08-24T08:44:46.444Z,25.39
2022-08-24T08:47:51.124Z,25.37
2022-08-24T08:50:26.280Z,25.39
2022-08-24T08:53:26.984Z,25.49
2022-08-24T08:56:09.618Z,25.53
2022-08-24T08:59:07.352Z,25.57
2022-08-24T09:01:47.938Z,25.68
2022-08-24T09:04:37.220Z,25.78
2022-08-24T09:07:08.899Z,25.81
2022-08-24T09:09:55.585Z,25.84
2022-08-24T09:12:38.086Z,25.95
2022-08-24T09:15:23.810Z,26.01
2022-08-24T09:18:29.003Z,26.11
2022-08-24T09:21:28.108Z,26.22
2022-08-24T09:24:11.809Z,26.38
2022-08-24T09:27:05.103Z,26.42
2022-08-24T09:29:55.571Z,26.59
2022-08-24T09:32:39.226Z,26.64
2022-08-24T09:35:26.359Z,26.68
2022-08-24T09:38:00.153Z,26.75
2022-08-24T09:41:00.586Z,26.83
2022-08-24T09:43:45.874Z,26.96
2022-08-24T09:46:48.502Z,27.07
2022-08-24T09:49:56.091Z,27.12
2022-08-24T09:52:35.507Z,27.11
2022-08-24T09:55:26.830Z,27.26
2022-08-24T09:58:09.761Z,27.37
2022-08-24T10:00:47.511Z,27.43
2022-08-24T10:03:37.880Z,27.44
2022-08-24T10:06:43.505Z,27.46
2022-08-24T10:09:31.631Z,27.73
2022-08-24T10:12:16.075Z,27.84
2022-08-24T10:15:02.396Z,27.83
2022-08-24T10:17:43.330Z,27.89
2022-08-24T10:20:10.249Z,27.94
2022-08-24T10:23:05.730Z,28.06
2022-08-24T10:25:51.601Z,28.14
2022-08-24T10:28:39.404Z,28.19
2022-08-24T10:31:13.143Z,28.26
2022-08-24T10:33:56.098Z,28.28
2022-08-24T10:37:01.187Z,28.27
2022-08-24T10:39:43.834Z,28.32
2022-08-24T10:42:52.358Z,28.41
2022-08-24T10:45:37.918Z,28.46
2022-08-24T10:48:23.303Z,28.56
2022-08-24T10:50:55.879Z,28.58
2022-08-24T10:53:27.905Z,28.75
2022-08-24T10:56:13.298Z,28.84
2022-08-24T10:58:46.233Z,28.96
2022-08-24T11:01:34.989Z,28.97
2022-08-24T11:04:05.086Z,29.05
2022-08-24T11:06:40.457Z,29.10
2022-08-24T11:09:19.717Z,29.05
2022-08-24T11:11:50.000Z,29.18
2022-08-24T11:14:29.557Z,29.24
2022-08-24T11:17:17.867Z,29.24
2022-08-24T11:19:45.286Z,29.20
2022-08-24T11:22:37.900Z,29.24
2022-08-24T11:25:19.390Z,29.35
2022-08-24T11:27:51.011Z,29.39
2022-08-24T11:30:18.132Z,29.40
2022-08-24T11:32:53.983Z,29.45
2022-08-24T11:35:24.115Z,29.51
2022-08-24T11:37:55.209Z,29.55
2022-08-24T11:40:28.430Z,29.59
2022-08-24T11:43:11.909Z,29.56
2022-08-24T11:45:46.745Z,29.59
2022-08-24T11:48:36.277Z,29.64
2022-08-24T11:51:35.730Z,29.58
2022-08-24T11:54:05.364Z,29.62
2022-08-24T11:56:38.533Z,29.64
2022-08-24T11:59:23.643Z,29.70
2022-08-24T12:01:58.676Z,29.69
2022-08-24T12:04:44.777Z,29.67
2022-08-24T12:07:23.910Z,29.77
2022-08-24T12:10:03.731Z,29.76
2022-08-24T12:12:33.647Z,29.75
2022-08-24T12:15:12.800Z,29.83
2022-08-24T12:18:05.251Z,29.81
2022-08-24T12:20:41.313Z,29.84
2022-08-24T12:23:39.967Z,29.94
2022-08-24T12:26:12.468Z,29.95
2022-08-24T12:28:53.639Z,29.93
2022-08-24T12:31:49.515Z,30.01
2022-08-24T12:34:26.123Z,29.93
2022-08-24T12:36:58.465Z,29.93
2022-08-24T12:39:39.176Z,30.02
2022-08-24T12:42:18.832Z,29.99
2022-08-24T12:45:06.033Z,30.07
2022-08-24T12:47:46.642Z,29.97
2022-08-24T12:50:25.185Z,30.03
2022-08-24T12:53:12.260Z,30.01
2022-08-24T12:56:20.519Z,30.10
2022-08-24T12:59:03.167Z,30.12
2022-08-24T13:01:35.764Z,30.11
2022-08-24T13:04:53.830Z,30.09
2022-08-24T13:07:23.520Z,30.11
2022-08-24T13:09:53.588Z,30.13
2022-08-24T13:12:41.744Z,30.13
2022-08-24T13:15:24.543Z,30.14
2022-08-24T13:18:00.265Z,30.13
2022-08-24T13:20:38.531Z,30.14
2022-08-24T13:23:16.115Z,30.12
2022-08-24T13:26:11.091Z,30.12
2022-08-24T13:28:47.872Z,30.05
2022-08-24T13:31:38.565Z,30.12
2022-08-24T13:34:14.731Z,30.16
2022-08-24T13:36:48.690Z,30.19
2022-08-24T13:39:45.755Z,30.21
2022-08-24T13:42:30.119Z,30.19
2022-08-24T13:45:34.443Z,30.21
2022-08-24T13:48:07.620Z,30.23
2022-08-24T13:50:42.423Z,30.24
2022-08-24T13:53:31.291Z,30.16
2022-08-24T13:56:19.559Z,30.21
2022-08-24T13:58:52.516Z,30.22
2022-08-24T14:01:51.364Z,30.20
2022-08-24T14:04:34.516Z,30.20
2022-08-24T14:07:03.930Z,30.16
2022-08-24T14:09:52.735Z,30.15
2022-08-24T14:12:36.265Z,30.15
2022-08-24T14:15:09.360Z,30.13
2022-08-24T14:17:54.143Z,30.07
2022-08-24T14:20:33.571Z,30.11
2022-08-24T14:23:10.171Z,30.11
2022-08-24T14:25:37.136Z,30.05
2022-08-24T14:28:42.051Z,30.02
2022-08-24T14:31:28.018Z,30.02
2022-08-24T14:34:14.017Z,29.98
2022-08-24T14:36:57.562Z,29.96
2022-08-24T14:39:41.366Z,29.92
2022-08-24T14:42:35.894Z,29.91
2022-08-24T14:45:26.890Z,29.90
2022-08-24T14:48:12.166Z,29.85
2022-08-24T14:51:11.062Z,29.82
2022-08-24T14:53:54.772Z,29.80
2022-08-24T14:56:48.038Z,29.80
2022-08-24T14:59:37.846Z,29.79
2022-08-24T15:02:25.775Z,29.79
2022-08-24T15:04:58.478Z,29.80
2022-08-24T15:07:33.427Z,29.79
2022-08-24T15:10:02.155Z,29.75
2022-08-24T15:12:29.074Z,29.66
2022-08-24T15:15:09.024Z,29.66
2022-08-24T15:18:15.724Z,29.65
2022-08-24T15:21:02.595Z,29.66
2022-08-24T15:24:01.670Z,29.64
2022-08-24T15:26:58.330Z,29.64
2022-08-24T15:29:30.431Z,29.59
2022-08-24T15:32:05.365Z,29.55
2022-08-24T15:34:50.248Z,29.45
2022-08-24T15:37:28.351Z,29.46
2022-08-24T15:39:55.855Z,29.46
2022-08-24T15:42:22.688Z,29.40
2022-08-24T15:44:50.926Z,29.34
2022-08-24T15:47:24.332Z,29.29
2022-08-24T15:50:06.507Z,29.26
2022-08-24T15:52:42.051Z,29.23
2022-08-24T15:55:35.834Z,29.26
2022-08-24T15:58:24.536Z,29.23
2022-08-24T16:01:10.489Z,29.19
2022-08-24T16:03:55.771Z,29.12
2022-08-24T16:06:31.250Z,29.11
2022-08-24T16:09:27.830Z,29.02
2022-08-24T16:11:57.160Z,29.03
2022-08-24T16:14:39.506Z,28.97
2022-08-24T16:17:20.763Z,28.92
2022-08-24T16:19:58.443Z,28.86
2022-08-24T16:22:36.350Z,28.82
2022-08-24T16:25:31.452Z,28.78
2022-08-24T16:28:30.283Z,28.74
2022-08-24T16:31:03.106Z,28.67
2022-08-24T16:33:44.016Z,28.57
2022-08-24T16:36:20.469Z,28.57
2022-08-24T16:38:51.111Z,28.52
2022-08-24T16:41:22.548Z,28.49
2022-08-24T16:43:49.362Z,28.43
2022-08-24T16:46:23.455Z,28.42
2022-08-24T16:48:53.981Z,28.34
2022-08-24T16:51:24.424Z,28.25
2022-08-24T16:53:52.129Z,28.19
2022-08-24T16:56:19.259Z,28.17
2022-08-24T16:58:47.567Z,28.07
2022-08-24T17:01:15.967Z,28.07
2022-08-24T17:03:44.270Z,28.01
2022-08-24T17:06:12.532Z,27.88
2022-08-24T17:08:39.904Z,27.84
2022-08-24T17:11:06.683Z,27.79
2022-08-24T17:13:48.860Z,27.72
2022-08-24T17:16:18.035Z,27.66
2022-08-24T17:18:44.773Z,27.53
2022-08-24T17:21:11.443Z,27.52
2022-08-24T17:23:40.707Z,27.41
2022-08-24T17:26:20.812Z,27.39
2022-08-24T17:28:52.378Z,27.33
2022-08-24T17:31:19.411Z,27.25
2022-08-24T17:33:48.269Z,27.19
2022-08-24T17:36:18.512Z,27.15
2022-08-24T17:38:53.130Z,27.02
2022-08-24T17:41:24.520Z,27.01
2022-08-24T17:43:52.445Z,26.95
2022-08-24T17:46:20.457Z,26.91
2022-08-24T17:48:48.775Z,26.80
2022-08-24T17:51:15.941Z,26.81
2022-08-24T17:53:42.752Z,26.75
2022-08-24T17:56:13.103Z,26.65
2022-08-24T17:58:59.364Z,26.66
2022-08-24T18:01:26.936Z,26.57
2022-08-24T18:03:54.310Z,26.51
2022-08-24T18:06:25.933Z,26.47
2022-08-24T18:08:56.589Z,26.41
2022-08-24T18:11:25.955Z,26.35
2022-08-24T18:13:54.415Z,26.21
2022-08-24T18:16:23.699Z,26.19
2022-08-24T18:18:52.215Z,26.18
2022-08-24T18:21:20.195Z,26.12
2022-08-24T18:23:50.832Z,26.03
2022-08-24T18:26:27.875Z,25.97
2022-08-24T18:28:58.173Z,25.90
2022-08-24T18:31:27.832Z,25.80
2022-08-24T18:33:54.642Z,25.66
2022-08-24T18:36:21.486Z,25.64
2022-08-24T18:38:48.575Z,25.55
2022-08-24T18:41:15.546Z,25.53
2022-08-24T18:43:42.332Z,25.46
2022-08-24T18:46:09.585Z,25.41
2022-08-24T18:48:36.459Z,25.35
2022-08-24T18:51:03.810Z,25.30
2022-08-24T18:53:30.867Z,25.24
2022-08-24T18:56:00.573Z,25.20
2022-08-24T18:58:30.311Z,25.15
2022-08-24T19:00:57.170Z,25.09
2022-08-24T19:03:25.709Z,25.04
2022-08-24T19:05:52.866Z,25.00
2022-08-24T19:08:19.760Z,24.96
2022-08-24T19:10:46.544Z,24.94
2022-08-24T19:13:18.454Z,24.84
2022-08-24T19:15:49.530Z,24.77
2022-08-24T19:18:18.973Z,24.77
2022-08-24T19:20:50.389Z,24.66
2022-08-24T19:23:24.780Z,24.66
2022-08-24T19:25:52.373Z,24.61
2022-08-24T19:28:20.086Z,24.57
2022-08-24T19:30:47.647Z,24.51
2022-08-24T19:33:22.239Z,24.47
2022-08-24T19:35:51.113Z,24.45
2022-08-24T19:38:21.917Z,24.39
2022-08-24T19:40:52.698Z,24.33
2022-08-24T19:43:19.431Z,24.30
2022-08-24T19:46:04.937Z,24.18
2022-08-24T19:48:35.214Z,24.20
2022-08-24T19:51:08.562Z,24.12
2022-08-24T19:53:37.544Z,24.09
2022-08-24T19:56:06.707Z,24.01
2022-08-24T19:58:57.869Z,23.93
2022-08-24T20:01:31.548Z,23.96
2022-08-24T20:03:58.640Z,23.92
2022-08-24T20:06:25.962Z,23.87
2022-08-24T20:08:53.546Z,23.83
2022-08-24T20:11:25.071Z,23.78
2022-08-24T20:13:53.228Z,23.75
2022-08-24T20:16:22.228Z,23.69
2022-08-24T20:18:49.715Z,23.64
2022-08-24T20:21:16.970Z,23.59
2022-08-24T20:23:45.404Z,23.53
2022-08-24T20:26:13.516Z,23.45
2022-08-24T20:28:46.952Z,23.40
2022-08-24T20:31:14.845Z,23.34
2022-08-24T20:33:41.791Z,23.28
2022-08-24T20:36:21.401Z,23.21
2022-08-24T20:38:48.654Z,23.17
2022-08-24T20:41:15.903Z,23.09
2022-08-24T20:43:42.626Z,23.03
2022-08-24T20:46:09.959Z,22.96
2022-08-24T20:48:41.499Z,22.85
2022-08-24T20:51:10.644Z,22.91
2022-08-24T20:53:37.743Z,22.86
2022-08-24T20:56:08.961Z,22.65
2022-08-24T20:58:38.387Z,22.74
2022-08-24T21:01:07.048Z,22.70
2022-08-24T21:03:34.189Z,22.67
2022-08-24T21:06:02.583Z,22.61
2022-08-24T21:08:29.336Z,22.60
2022-08-24T21:10:56.255Z,22.50
2022-08-24T21:13:23.139Z,22.53
2022-08-24T21:15:50.012Z,22.51
2022-08-24T21:18:16.760Z,22.41
2022-08-24T21:20:44.654Z,22.37
2022-08-24T21:23:30.109Z,22.40
2022-08-24T21:25:57.562Z,22.37
2022-08-24T21:28:24.280Z,22.32
2022-08-24T21:30:50.984Z,22.27
2022-08-24T21:33:36.347Z,22.25
2022-08-24T21:36:03.377Z,22.21
2022-08-24T21:38:30.435Z,22.20
2022-08-24T21:40:58.525Z,22.10
2022-08-24T21:43:26.145Z,22.12
2022-08-24T21:45:54.491Z,22.05
2022-08-24T21:48:21.197Z,22.05
2022-08-24T21:50:48.728Z,21.99
2022-08-24T21:53:16.067Z,22.01
2022-08-24T21:55:43.313Z,21.89
2022-08-24T21:58:11.406Z,21.93
2022-08-24T22:00:39.277Z,21.88
2022-08-24T22:03:07.163Z,21.79
2022-08-24T22:05:34.221Z,21.81
2022-08-24T22:08:01.062Z,21.76
2022-08-24T22:10:28.296Z,21.71
2022-08-24T22:12:54.948Z,21.69
2022-08-24T22:15:23.429Z,21.65
2022-08-24T22:17:52.720Z,21.59
2022-08-24T22:20:23.332Z,21.52
2022-08-24T22:22:50.911Z,21.54
2022-08-24T22:25:17.881Z,21.51
2022-08-24T22:27:46.211Z,21.48
2022-08-24T22:30:17.015Z,21.44
2022-08-24T22:32:44.898Z,21.37
2022-08-24T22:35:11.754Z,21.41
2022-08-24T22:37:38.764Z,21.38
2022-08-24T22:40:06.460Z,21.35
2022-08-24T22:42:40.067Z,21.33
2022-08-24T22:45:07.848Z,21.30
2022-08-24T22:47:34.546Z,21.20
2022-08-24T22:50:04.733Z,21.23
2022-08-24T22:52:31.363Z,21.21
2022-08-24T22:54:58.237Z,21.18
2022-08-24T22:57:26.786Z,21.13
2022-08-24T22:59:54.770Z,21.14
2022-08-24T23:02:22.261Z,21.05
2022-08-24T23:04:52.449Z,21.01
2022-08-24T23:07:19.912Z,21.05
2022-08-24T23:09:47.151Z,20.95
2022-08-24T23:12:17.761Z,20.98
2022-08-24T23:14:44.581Z,20.95
2022-08-24T23:17:11.670Z,20.92
2022-08-24T23:19:57.435Z,20.86
2022-08-24T23:22:24.136Z,20.85
2022-08-24T23:24:53.116Z,20.82
2022-08-24T23:27:20.218Z,20.78
2022-08-24T23:29:48.572Z,20.74
2022-08-24T23:32:17.998Z,20.73
2022-08-24T23:34:46.224Z,20.68
2022-08-24T23:37:15.509Z,20.68
2022-08-24T23:39:43.159Z,20.65
2022-08-24T23:42:10.055Z,20.61
2022-08-24T23:44:37.564Z,20.54
2022-08-24T23:47:05.570Z,20.58
2022-08-24T23:49:32.377Z,20.56
2022-08-24T23:51:59.697Z,20.56
2022-08-24T23:54:27.596Z,20.53
2022-08-24T23:56:54.868Z,20.50
2022-08-24T23:59:24.609Z,20.41
